sensor_id;sensor_type;location;lat;lon;timestamp;P1;durP1;ratioP1;P2;durP2;ratioP2
24613;SDS011;12760;46.296;25.290;2022-12-24T00:02:12;1.87;;;1.87;;
24613;SDS011;12760;46.296;25.290;2022-12-24T00:04:38;1.80;;;1.80;;
24613;SDS011;12760;46.296;25.290;2022-12-24T00:07:04;1.90;;;1.90;;
24613;SDS011;12760;46.296;25.290;2022-12-24T00:09:30;2.80;;;2.70;;
24613;SDS011;12760;46.296;25.290;2022-12-24T00:11:55;1.73;;;1.73;;
24613;SDS011;12760;46.296;25.290;2022-12-24T00:14:21;1.50;;;1.50;;
24613;SDS011;12760;46.296;25.290;2022-12-24T00:16:47;1.73;;;1.73;;
24613;SDS011;12760;46.296;25.290;2022-12-24T00:19:12;1.63;;;1.63;;
24613;SDS011;12760;46.296;25.290;2022-12-24T00:21:38;3.67;;;3.47;;
24613;SDS011;12760;46.296;25.290;2022-12-24T00:24:04;2.53;;;2.47;;
24613;SDS011;12760;46.296;25.290;2022-12-24T00:26:30;1.33;;;1.33;;
24613;SDS011;12760;46.296;25.290;2022-12-24T00:28:57;1.43;;;1.43;;
24613;SDS011;12760;46.296;25.290;2022-12-24T00:31:23;1.80;;;1.80;;
24613;SDS011;12760;46.296;25.290;2022-12-24T00:33:49;2.40;;;2.37;;
24613;SDS011;12760;46.296;25.290;2022-12-24T00:36:15;1.73;;;1.73;;
24613;SDS011;12760;46.296;25.290;2022-12-24T00:38:42;1.60;;;1.60;;
24613;SDS011;12760;46.296;25.290;2022-12-24T00:41:08;2.00;;;2.00;;
24613;SDS011;12760;46.296;25.290;2022-12-24T00:43:49;2.10;;;2.00;;
24613;SDS011;12760;46.296;25.290;2022-12-24T00:46:16;1.97;;;1.97;;
24613;SDS011;12760;46.296;25.290;2022-12-24T00:48:42;2.00;;;1.77;;
24613;SDS011;12760;46.296;25.290;2022-12-24T00:51:07;1.77;;;1.77;;
24613;SDS011;12760;46.296;25.290;2022-12-24T00:53:33;1.70;;;1.70;;
24613;SDS011;12760;46.296;25.290;2022-12-24T00:55:59;15.40;;;3.27;;
24613;SDS011;12760;46.296;25.290;2022-12-24T00:58:25;2.90;;;2.80;;
24613;SDS011;12760;46.296;25.290;2022-12-24T01:00:50;1.63;;;1.63;;
24613;SDS011;12760;46.296;25.290;2022-12-24T01:03:16;2.90;;;2.80;;
24613;SDS011;12760;46.296;25.290;2022-12-24T01:05:42;2.03;;;2.03;;
24613;SDS011;12760;46.296;25.290;2022-12-24T01:08:07;1.50;;;1.50;;
24613;SDS011;12760;46.296;25.290;2022-12-24T01:10:33;1.47;;;1.47;;
24613;SDS011;12760;46.296;25.290;2022-12-24T01:13:02;1.83;;;1.83;;
24613;SDS011;12760;46.296;25.290;2022-12-24T01:15:28;2.10;;;2.10;;
24613;SDS011;12760;46.296;25.290;2022-12-24T01:17:54;2.60;;;2.50;;
24613;SDS011;12760;46.296;25.290;2022-12-24T01:20:20;2.53;;;2.43;;
24613;SDS011;12760;46.296;25.290;2022-12-24T01:22:46;2.90;;;2.80;;
24613;SDS011;12760;46.296;25.290;2022-12-24T01:25:13;2.20;;;2.20;;
24613;SDS011;12760;46.296;25.290;2022-12-24T01:27:39;2.27;;;2.27;;
24613;SDS011;12760;46.296;25.290;2022-12-24T01:30:05;1.80;;;1.80;;
24613;SDS011;12760;46.296;25.290;2022-12-24T01:32:32;2.50;;;2.27;;
24613;SDS011;12760;46.296;25.290;2022-12-24T01:34:58;1.23;;;1.23;;
24613;SDS011;12760;46.296;25.290;2022-12-24T01:37:24;4.13;;;3.93;;
24613;SDS011;12760;46.296;25.290;2022-12-24T01:39:50;1.50;;;1.50;;
24613;SDS011;12760;46.296;25.290;2022-12-24T01:42:35;2.73;;;2.63;;
24613;SDS011;12760;46.296;25.290;2022-12-24T01:45:39;1.87;;;1.87;;
24613;SDS011;12760;46.296;25.290;2022-12-24T01:51:16;1.97;;;1.97;;
24613;SDS011;12760;46.296;25.290;2022-12-24T01:53:44;3.57;;;3.27;;
24613;SDS011;12760;46.296;25.290;2022-12-24T01:56:13;1.83;;;1.83;;
24613;SDS011;12760;46.296;25.290;2022-12-24T01:58:39;2.00;;;2.00;;
24613;SDS011;12760;46.296;25.290;2022-12-24T02:01:10;2.67;;;2.57;;
24613;SDS011;12760;46.296;25.290;2022-12-24T02:03:36;11.13;;;6.13;;
24613;SDS011;12760;46.296;25.290;2022-12-24T02:06:01;1.30;;;1.30;;
24613;SDS011;12760;46.296;25.290;2022-12-24T02:08:28;2.13;;;2.07;;
24613;SDS011;12760;46.296;25.290;2022-12-24T02:11:14;2.13;;;2.00;;
24613;SDS011;12760;46.296;25.290;2022-12-24T02:13:42;3.00;;;2.80;;
24613;SDS011;12760;46.296;25.290;2022-12-24T02:18:59;1.83;;;1.77;;
24613;SDS011;12760;46.296;25.290;2022-12-24T02:21:54;2.40;;;2.30;;
24613;SDS011;12760;46.296;25.290;2022-12-24T02:40:39;1.53;;;1.53;;
24613;SDS011;12760;46.296;25.290;2022-12-24T02:43:10;2.70;;;2.60;;
24613;SDS011;12760;46.296;25.290;2022-12-24T02:45:41;2.83;;;2.73;;
24613;SDS011;12760;46.296;25.290;2022-12-24T02:48:11;2.63;;;2.53;;
24613;SDS011;12760;46.296;25.290;2022-12-24T02:50:39;2.10;;;2.10;;
24613;SDS011;12760;46.296;25.290;2022-12-24T02:53:05;1.90;;;1.90;;
24613;SDS011;12760;46.296;25.290;2022-12-24T03:11:58;7.70;;;3.90;;
24613;SDS011;12760;46.296;25.290;2022-12-24T03:14:31;2.27;;;2.17;;
24613;SDS011;12760;46.296;25.290;2022-12-24T03:16:59;2.77;;;2.67;;
24613;SDS011;12760;46.296;25.290;2022-12-24T03:19:27;2.70;;;2.50;;
24613;SDS011;12760;46.296;25.290;2022-12-24T03:21:55;2.40;;;2.30;;
24613;SDS011;12760;46.296;25.290;2022-12-24T03:24:23;2.97;;;2.87;;
24613;SDS011;12760;46.296;25.290;2022-12-24T03:26:48;1.77;;;1.77;;
24613;SDS011;12760;46.296;25.290;2022-12-24T03:29:15;2.00;;;2.00;;
24613;SDS011;12760;46.296;25.290;2022-12-24T03:31:42;1.93;;;1.93;;
24613;SDS011;12760;46.296;25.290;2022-12-24T03:34:12;3.97;;;3.70;;
24613;SDS011;12760;46.296;25.290;2022-12-24T03:36:39;2.23;;;2.17;;
24613;SDS011;12760;46.296;25.290;2022-12-24T03:39:05;2.67;;;2.57;;
24613;SDS011;12760;46.296;25.290;2022-12-24T03:41:32;3.03;;;2.93;;
24613;SDS011;12760;46.296;25.290;2022-12-24T03:43:58;2.47;;;2.40;;
24613;SDS011;12760;46.296;25.290;2022-12-24T03:46:23;2.90;;;2.80;;
24613;SDS011;12760;46.296;25.290;2022-12-24T03:48:49;2.70;;;2.60;;
24613;SDS011;12760;46.296;25.290;2022-12-24T03:51:19;2.77;;;2.67;;
24613;SDS011;12760;46.296;25.290;2022-12-24T03:53:46;2.03;;;2.00;;
24613;SDS011;12760;46.296;25.290;2022-12-24T03:56:12;11.50;;;2.73;;
24613;SDS011;12760;46.296;25.290;2022-12-24T03:58:38;3.23;;;3.13;;
24613;SDS011;12760;46.296;25.290;2022-12-24T04:01:04;2.50;;;2.30;;
24613;SDS011;12760;46.296;25.290;2022-12-24T04:03:29;3.27;;;3.17;;
24613;SDS011;12760;46.296;25.290;2022-12-24T04:06:14;4.63;;;4.03;;
24613;SDS011;12760;46.296;25.290;2022-12-24T04:08:41;2.67;;;2.57;;
24613;SDS011;12760;46.296;25.290;2022-12-24T04:11:08;2.50;;;2.40;;
24613;SDS011;12760;46.296;25.290;2022-12-24T04:13:35;3.43;;;3.30;;
24613;SDS011;12760;46.296;25.290;2022-12-24T04:16:03;2.27;;;2.27;;
24613;SDS011;12760;46.296;25.290;2022-12-24T04:18:30;2.47;;;2.37;;
24613;SDS011;12760;46.296;25.290;2022-12-24T04:20:56;2.10;;;2.10;;
24613;SDS011;12760;46.296;25.290;2022-12-24T04:23:22;2.77;;;2.67;;
24613;SDS011;12760;46.296;25.290;2022-12-24T04:25:48;2.97;;;2.87;;
24613;SDS011;12760;46.296;25.290;2022-12-24T04:28:14;2.70;;;2.60;;
24613;SDS011;12760;46.296;25.290;2022-12-24T04:30:41;1.70;;;1.70;;
24613;SDS011;12760;46.296;25.290;2022-12-24T04:33:07;3.17;;;2.97;;
24613;SDS011;12760;46.296;25.290;2022-12-24T04:35:33;2.90;;;2.70;;
24613;SDS011;12760;46.296;25.290;2022-12-24T04:38:04;4.87;;;4.47;;
24613;SDS011;12760;46.296;25.290;2022-12-24T04:40:29;2.10;;;2.10;;
24613;SDS011;12760;46.296;25.290;2022-12-24T04:42:55;2.63;;;2.53;;
24613;SDS011;12760;46.296;25.290;2022-12-24T04:45:21;3.57;;;3.37;;
24613;SDS011;12760;46.296;25.290;2022-12-24T04:47:46;4.53;;;4.23;;
24613;SDS011;12760;46.296;25.290;2022-12-24T04:50:12;2.30;;;2.27;;
24613;SDS011;12760;46.296;25.290;2022-12-24T04:52:38;1.73;;;1.73;;
24613;SDS011;12760;46.296;25.290;2022-12-24T04:55:03;5.13;;;4.73;;
24613;SDS011;12760;46.296;25.290;2022-12-24T04:57:30;1.73;;;1.73;;
24613;SDS011;12760;46.296;25.290;2022-12-24T04:59:57;3.03;;;2.93;;
24613;SDS011;12760;46.296;25.290;2022-12-24T05:02:23;4.20;;;4.00;;
24613;SDS011;12760;46.296;25.290;2022-12-24T05:04:49;2.30;;;2.17;;
24613;SDS011;12760;46.296;25.290;2022-12-24T05:07:15;3.37;;;3.27;;
24613;SDS011;12760;46.296;25.290;2022-12-24T05:09:41;2.80;;;2.70;;
24613;SDS011;12760;46.296;25.290;2022-12-24T05:12:06;3.40;;;3.13;;
24613;SDS011;12760;46.296;25.290;2022-12-24T05:14:32;2.73;;;2.63;;
24613;SDS011;12760;46.296;25.290;2022-12-24T05:16:58;5.10;;;4.77;;
24613;SDS011;12760;46.296;25.290;2022-12-24T05:19:23;7.73;;;6.67;;
24613;SDS011;12760;46.296;25.290;2022-12-24T05:21:49;4.07;;;3.83;;
24613;SDS011;12760;46.296;25.290;2022-12-24T05:24:35;4.00;;;3.87;;
24613;SDS011;12760;46.296;25.290;2022-12-24T05:27:19;4.53;;;4.23;;
24613;SDS011;12760;46.296;25.290;2022-12-24T05:29:45;3.80;;;3.70;;
24613;SDS011;12760;46.296;25.290;2022-12-24T05:32:11;2.23;;;2.17;;
24613;SDS011;12760;46.296;25.290;2022-12-24T05:34:37;3.83;;;3.70;;
24613;SDS011;12760;46.296;25.290;2022-12-24T05:37:02;4.50;;;4.30;;
24613;SDS011;12760;46.296;25.290;2022-12-24T05:39:28;2.53;;;2.43;;
24613;SDS011;12760;46.296;25.290;2022-12-24T05:41:54;4.73;;;4.53;;
24613;SDS011;12760;46.296;25.290;2022-12-24T05:44:19;5.37;;;4.97;;
24613;SDS011;12760;46.296;25.290;2022-12-24T05:46:45;15.70;;;12.50;;
24613;SDS011;12760;46.296;25.290;2022-12-24T05:49:11;5.33;;;4.33;;
24613;SDS011;12760;46.296;25.290;2022-12-24T05:51:37;7.27;;;4.83;;
24613;SDS011;12760;46.296;25.290;2022-12-24T05:54:04;7.60;;;7.20;;
24613;SDS011;12760;46.296;25.290;2022-12-24T05:56:30;9.60;;;5.40;;
24613;SDS011;12760;46.296;25.290;2022-12-24T05:58:56;2.57;;;2.47;;
24613;SDS011;12760;46.296;25.290;2022-12-24T06:01:22;2.10;;;2.10;;
24613;SDS011;12760;46.296;25.290;2022-12-24T06:03:49;5.57;;;5.27;;
24613;SDS011;12760;46.296;25.290;2022-12-24T06:06:19;9.13;;;4.43;;
24613;SDS011;12760;46.296;25.290;2022-12-24T06:08:47;4.23;;;3.97;;
24613;SDS011;12760;46.296;25.290;2022-12-24T06:11:14;4.47;;;4.23;;
24613;SDS011;12760;46.296;25.290;2022-12-24T06:13:42;3.83;;;3.63;;
24613;SDS011;12760;46.296;25.290;2022-12-24T06:16:09;4.27;;;3.90;;
24613;SDS011;12760;46.296;25.290;2022-12-24T06:18:37;6.90;;;5.47;;
24613;SDS011;12760;46.296;25.290;2022-12-24T06:21:03;6.47;;;4.17;;
24613;SDS011;12760;46.296;25.290;2022-12-24T06:23:30;4.63;;;4.43;;
24613;SDS011;12760;46.296;25.290;2022-12-24T06:25:57;13.03;;;5.57;;
24613;SDS011;12760;46.296;25.290;2022-12-24T06:28:31;4.57;;;4.33;;
24613;SDS011;12760;46.296;25.290;2022-12-24T06:30:58;3.97;;;3.77;;
24613;SDS011;12760;46.296;25.290;2022-12-24T06:33:25;2.27;;;2.17;;
24613;SDS011;12760;46.296;25.290;2022-12-24T06:35:51;3.67;;;3.57;;
24613;SDS011;12760;46.296;25.290;2022-12-24T06:38:17;12.07;;;6.13;;
24613;SDS011;12760;46.296;25.290;2022-12-24T06:40:43;5.87;;;5.37;;
24613;SDS011;12760;46.296;25.290;2022-12-24T06:43:10;4.57;;;4.37;;
24613;SDS011;12760;46.296;25.290;2022-12-24T06:45:37;4.63;;;4.40;;
24613;SDS011;12760;46.296;25.290;2022-12-24T06:48:03;6.67;;;6.23;;
24613;SDS011;12760;46.296;25.290;2022-12-24T06:50:31;3.53;;;3.43;;
24613;SDS011;12760;46.296;25.290;2022-12-24T06:52:58;2.90;;;2.80;;
24613;SDS011;12760;46.296;25.290;2022-12-24T06:55:23;2.20;;;2.20;;
24613;SDS011;12760;46.296;25.290;2022-12-24T06:57:49;17.23;;;5.27;;
24613;SDS011;12760;46.296;25.290;2022-12-24T07:00:15;4.43;;;4.23;;
24613;SDS011;12760;46.296;25.290;2022-12-24T07:02:41;7.70;;;4.33;;
24613;SDS011;12760;46.296;25.290;2022-12-24T07:05:08;5.97;;;5.70;;
24613;SDS011;12760;46.296;25.290;2022-12-24T07:07:36;3.80;;;3.70;;
24613;SDS011;12760;46.296;25.290;2022-12-24T07:10:03;8.03;;;7.43;;
24613;SDS011;12760;46.296;25.290;2022-12-24T07:12:29;4.23;;;4.03;;
24613;SDS011;12760;46.296;25.290;2022-12-24T07:14:55;7.63;;;7.13;;
24613;SDS011;12760;46.296;25.290;2022-12-24T07:17:21;5.23;;;4.83;;
24613;SDS011;12760;46.296;25.290;2022-12-24T07:19:47;7.20;;;4.70;;
24613;SDS011;12760;46.296;25.290;2022-12-24T07:22:12;13.40;;;11.33;;
24613;SDS011;12760;46.296;25.290;2022-12-24T07:24:38;2.87;;;2.77;;
24613;SDS011;12760;46.296;25.290;2022-12-24T07:27:04;5.97;;;4.27;;
24613;SDS011;12760;46.296;25.290;2022-12-24T07:29:30;7.60;;;6.87;;
24613;SDS011;12760;46.296;25.290;2022-12-24T07:31:55;6.90;;;6.40;;
24613;SDS011;12760;46.296;25.290;2022-12-24T07:34:21;4.77;;;4.57;;
24613;SDS011;12760;46.296;25.290;2022-12-24T07:36:47;5.17;;;4.87;;
24613;SDS011;12760;46.296;25.290;2022-12-24T07:39:12;6.27;;;3.80;;
24613;SDS011;12760;46.296;25.290;2022-12-24T07:41:38;6.17;;;5.77;;
24613;SDS011;12760;46.296;25.290;2022-12-24T07:44:04;3.00;;;2.90;;
24613;SDS011;12760;46.296;25.290;2022-12-24T07:46:29;6.13;;;5.80;;
24613;SDS011;12760;46.296;25.290;2022-12-24T07:48:55;6.30;;;5.77;;
24613;SDS011;12760;46.296;25.290;2022-12-24T07:51:21;5.63;;;5.20;;
24613;SDS011;12760;46.296;25.290;2022-12-24T07:53:47;4.53;;;4.33;;
24613;SDS011;12760;46.296;25.290;2022-12-24T07:56:13;3.27;;;3.10;;
24613;SDS011;12760;46.296;25.290;2022-12-24T07:58:39;10.90;;;6.47;;
24613;SDS011;12760;46.296;25.290;2022-12-24T08:01:06;6.87;;;6.27;;
24613;SDS011;12760;46.296;25.290;2022-12-24T08:03:32;5.80;;;5.57;;
24613;SDS011;12760;46.296;25.290;2022-12-24T08:05:58;3.37;;;3.27;;
24613;SDS011;12760;46.296;25.290;2022-12-24T08:08:24;5.13;;;4.83;;
24613;SDS011;12760;46.296;25.290;2022-12-24T08:10:50;7.10;;;6.50;;
24613;SDS011;12760;46.296;25.290;2022-12-24T08:13:16;3.53;;;3.43;;
24613;SDS011;12760;46.296;25.290;2022-12-24T08:15:43;6.30;;;5.73;;
24613;SDS011;12760;46.296;25.290;2022-12-24T08:18:09;5.57;;;5.30;;
24613;SDS011;12760;46.296;25.290;2022-12-24T08:20:36;3.67;;;3.47;;
24613;SDS011;12760;46.296;25.290;2022-12-24T08:23:03;10.83;;;9.83;;
24613;SDS011;12760;46.296;25.290;2022-12-24T08:25:29;5.80;;;5.60;;
24613;SDS011;12760;46.296;25.290;2022-12-24T08:27:56;12.40;;;11.40;;
24613;SDS011;12760;46.296;25.290;2022-12-24T08:30:21;11.60;;;10.70;;
24613;SDS011;12760;46.296;25.290;2022-12-24T08:32:47;26.00;;;9.43;;
24613;SDS011;12760;46.296;25.290;2022-12-24T08:35:13;13.33;;;12.30;;
24613;SDS011;12760;46.296;25.290;2022-12-24T08:37:39;6.10;;;5.67;;
24613;SDS011;12760;46.296;25.290;2022-12-24T08:40:05;8.57;;;8.07;;
24613;SDS011;12760;46.296;25.290;2022-12-24T08:42:31;6.13;;;5.73;;
24613;SDS011;12760;46.296;25.290;2022-12-24T08:44:56;3.80;;;3.63;;
24613;SDS011;12760;46.296;25.290;2022-12-24T08:47:22;8.03;;;7.30;;
24613;SDS011;12760;46.296;25.290;2022-12-24T08:49:47;6.23;;;5.93;;
24613;SDS011;12760;46.296;25.290;2022-12-24T08:52:13;7.43;;;6.83;;
24613;SDS011;12760;46.296;25.290;2022-12-24T08:54:39;5.47;;;5.17;;
24613;SDS011;12760;46.296;25.290;2022-12-24T08:57:05;7.03;;;6.60;;
24613;SDS011;12760;46.296;25.290;2022-12-24T08:59:30;7.10;;;6.70;;
24613;SDS011;12760;46.296;25.290;2022-12-24T09:01:56;5.40;;;5.10;;
24613;SDS011;12760;46.296;25.290;2022-12-24T09:04:21;4.17;;;3.97;;
24613;SDS011;12760;46.296;25.290;2022-12-24T09:06:47;5.37;;;4.97;;
24613;SDS011;12760;46.296;25.290;2022-12-24T09:09:13;8.50;;;7.37;;
24613;SDS011;12760;46.296;25.290;2022-12-24T09:11:38;12.10;;;11.10;;
24613;SDS011;12760;46.296;25.290;2022-12-24T09:14:04;6.83;;;6.47;;
24613;SDS011;12760;46.296;25.290;2022-12-24T09:16:30;10.10;;;9.27;;
24613;SDS011;12760;46.296;25.290;2022-12-24T09:18:56;10.70;;;9.73;;
24613;SDS011;12760;46.296;25.290;2022-12-24T09:21:22;10.43;;;9.80;;
24613;SDS011;12760;46.296;25.290;2022-12-24T09:23:48;10.67;;;6.50;;
24613;SDS011;12760;46.296;25.290;2022-12-24T09:26:15;5.83;;;5.50;;
24613;SDS011;12760;46.296;25.290;2022-12-24T09:28:46;6.40;;;6.00;;
24613;SDS011;12760;46.296;25.290;2022-12-24T09:31:13;6.17;;;5.97;;
24613;SDS011;12760;46.296;25.290;2022-12-24T09:33:40;9.03;;;8.20;;
24613;SDS011;12760;46.296;25.290;2022-12-24T09:36:07;20.27;;;10.63;;
24613;SDS011;12760;46.296;25.290;2022-12-24T09:38:33;15.10;;;14.00;;
24613;SDS011;12760;46.296;25.290;2022-12-24T09:41:00;12.10;;;11.03;;
24613;SDS011;12760;46.296;25.290;2022-12-24T09:43:27;19.37;;;17.90;;
24613;SDS011;12760;46.296;25.290;2022-12-24T09:49:07;13.57;;;12.23;;
24613;SDS011;12760;46.296;25.290;2022-12-24T09:51:40;14.47;;;13.07;;
24613;SDS011;12760;46.296;25.290;2022-12-24T09:56:52;15.00;;;13.53;;
24613;SDS011;12760;46.296;25.290;2022-12-24T09:59:22;15.73;;;12.60;;
24613;SDS011;12760;46.296;25.290;2022-12-24T10:01:51;13.40;;;12.23;;
24613;SDS011;12760;46.296;25.290;2022-12-24T10:04:19;13.47;;;12.43;;
24613;SDS011;12760;46.296;25.290;2022-12-24T10:06:58;11.70;;;10.83;;
24613;SDS011;12760;46.296;25.290;2022-12-24T10:15:35;17.83;;;16.20;;
24613;SDS011;12760;46.296;25.290;2022-12-24T10:18:08;8.03;;;7.63;;
24613;SDS011;12760;46.296;25.290;2022-12-24T10:28:33;12.53;;;11.23;;
24613;SDS011;12760;46.296;25.290;2022-12-24T10:31:03;14.00;;;12.73;;
24613;SDS011;12760;46.296;25.290;2022-12-24T10:33:42;10.93;;;10.23;;
24613;SDS011;12760;46.296;25.290;2022-12-24T10:36:10;13.17;;;11.83;;
24613;SDS011;12760;46.296;25.290;2022-12-24T10:38:44;14.97;;;12.73;;
24613;SDS011;12760;46.296;25.290;2022-12-24T10:41:10;6.13;;;5.77;;
24613;SDS011;12760;46.296;25.290;2022-12-24T10:43:38;22.43;;;14.70;;
24613;SDS011;12760;46.296;25.290;2022-12-24T10:46:12;15.97;;;13.70;;
24613;SDS011;12760;46.296;25.290;2022-12-24T10:48:51;17.60;;;15.37;;
24613;SDS011;12760;46.296;25.290;2022-12-24T10:54:01;11.57;;;10.70;;
24613;SDS011;12760;46.296;25.290;2022-12-24T10:56:31;19.80;;;16.87;;
24613;SDS011;12760;46.296;25.290;2022-12-24T10:59:03;10.77;;;9.90;;
24613;SDS011;12760;46.296;25.290;2022-12-24T11:01:45;9.23;;;8.63;;
24613;SDS011;12760;46.296;25.290;2022-12-24T11:04:16;15.00;;;13.77;;
24613;SDS011;12760;46.296;25.290;2022-12-24T11:09:22;17.20;;;15.57;;
24613;SDS011;12760;46.296;25.290;2022-12-24T11:11:49;12.07;;;11.00;;
24613;SDS011;12760;46.296;25.290;2022-12-24T11:14:16;8.53;;;7.80;;
24613;SDS011;12760;46.296;25.290;2022-12-24T11:17:02;14.13;;;13.27;;
24613;SDS011;12760;46.296;25.290;2022-12-24T11:19:32;15.90;;;12.93;;
24613;SDS011;12760;46.296;25.290;2022-12-24T11:22:02;8.07;;;7.53;;
24613;SDS011;12760;46.296;25.290;2022-12-24T11:24:34;8.57;;;8.00;;
24613;SDS011;12760;46.296;25.290;2022-12-24T11:27:21;10.63;;;8.70;;
24613;SDS011;12760;46.296;25.290;2022-12-24T11:29:48;13.50;;;12.37;;
24613;SDS011;12760;46.296;25.290;2022-12-24T11:32:20;14.97;;;13.93;;
24613;SDS011;12760;46.296;25.290;2022-12-24T11:34:47;9.37;;;8.57;;
24613;SDS011;12760;46.296;25.290;2022-12-24T11:37:15;13.13;;;12.30;;
24613;SDS011;12760;46.296;25.290;2022-12-24T11:39:52;14.27;;;12.43;;
24613;SDS011;12760;46.296;25.290;2022-12-24T11:42:32;31.43;;;11.47;;
24613;SDS011;12760;46.296;25.290;2022-12-24T11:45:04;13.00;;;12.07;;
24613;SDS011;12760;46.296;25.290;2022-12-24T11:47:33;20.70;;;19.00;;
24613;SDS011;12760;46.296;25.290;2022-12-24T11:50:18;17.93;;;15.03;;
24613;SDS011;12760;46.296;25.290;2022-12-24T11:52:46;14.43;;;13.33;;
24613;SDS011;12760;46.296;25.290;2022-12-24T11:55:43;17.77;;;15.90;;
24613;SDS011;12760;46.296;25.290;2022-12-24T12:01:03;14.47;;;13.47;;
24613;SDS011;12760;46.296;25.290;2022-12-24T12:03:35;21.53;;;15.23;;
24613;SDS011;12760;46.296;25.290;2022-12-24T12:06:07;14.63;;;13.57;;
24613;SDS011;12760;46.296;25.290;2022-12-24T12:08:44;36.73;;;19.93;;
24613;SDS011;12760;46.296;25.290;2022-12-24T12:11:11;13.80;;;12.47;;
24613;SDS011;12760;46.296;25.290;2022-12-24T12:13:38;8.87;;;8.37;;
24613;SDS011;12760;46.296;25.290;2022-12-24T12:18:51;14.10;;;13.03;;
24613;SDS011;12760;46.296;25.290;2022-12-24T12:22:00;14.67;;;13.77;;
24613;SDS011;12760;46.296;25.290;2022-12-24T12:24:23;15.43;;;13.60;;
24613;SDS011;12760;46.296;25.290;2022-12-24T12:27:18;14.10;;;12.93;;
24613;SDS011;12760;46.296;25.290;2022-12-24T12:30:04;10.27;;;9.30;;
24613;SDS011;12760;46.296;25.290;2022-12-24T12:32:46;15.40;;;14.03;;
24613;SDS011;12760;46.296;25.290;2022-12-24T12:35:33;14.80;;;13.60;;
24613;SDS011;12760;46.296;25.290;2022-12-24T12:38:03;14.83;;;13.63;;
24613;SDS011;12760;46.296;25.290;2022-12-24T12:40:41;11.17;;;10.17;;
24613;SDS011;12760;46.296;25.290;2022-12-24T12:56:45;13.13;;;11.97;;
24613;SDS011;12760;46.296;25.290;2022-12-24T13:21:32;13.77;;;12.40;;
24613;SDS011;12760;46.296;25.290;2022-12-24T13:24:05;11.63;;;10.67;;
24613;SDS011;12760;46.296;25.290;2022-12-24T13:26:42;8.37;;;7.80;;
24613;SDS011;12760;46.296;25.290;2022-12-24T13:29:50;17.57;;;14.90;;
24613;SDS011;12760;46.296;25.290;2022-12-24T13:34:52;12.20;;;11.10;;
24613;SDS011;12760;46.296;25.290;2022-12-24T13:50:40;15.43;;;13.83;;
24613;SDS011;12760;46.296;25.290;2022-12-24T13:56:41;10.47;;;9.67;;
24613;SDS011;12760;46.296;25.290;2022-12-24T13:58:47;16.13;;;11.50;;
24613;SDS011;12760;46.296;25.290;2022-12-24T14:01:16;10.50;;;9.80;;
24613;SDS011;12760;46.296;25.290;2022-12-24T14:03:46;14.10;;;12.73;;
24613;SDS011;12760;46.296;25.290;2022-12-24T14:06:21;10.33;;;9.47;;
24613;SDS011;12760;46.296;25.290;2022-12-24T14:08:51;10.60;;;9.63;;
24613;SDS011;12760;46.296;25.290;2022-12-24T14:11:23;13.33;;;12.33;;
24613;SDS011;12760;46.296;25.290;2022-12-24T14:16:45;19.90;;;12.43;;
24613;SDS011;12760;46.296;25.290;2022-12-24T14:19:15;20.73;;;18.67;;
24613;SDS011;12760;46.296;25.290;2022-12-24T14:32:49;19.30;;;16.47;;
24613;SDS011;12760;46.296;25.290;2022-12-24T14:35:17;11.90;;;10.90;;
24613;SDS011;12760;46.296;25.290;2022-12-24T14:37:45;14.30;;;12.17;;
24613;SDS011;12760;46.296;25.290;2022-12-24T14:40:31;9.90;;;9.10;;
24613;SDS011;12760;46.296;25.290;2022-12-24T14:46:06;13.20;;;12.33;;
24613;SDS011;12760;46.296;25.290;2022-12-24T14:48:54;16.10;;;14.57;;
24613;SDS011;12760;46.296;25.290;2022-12-24T14:54:28;11.07;;;10.27;;
24613;SDS011;12760;46.296;25.290;2022-12-24T14:59:55;15.97;;;14.43;;
24613;SDS011;12760;46.296;25.290;2022-12-24T15:02:23;8.77;;;8.27;;
24613;SDS011;12760;46.296;25.290;2022-12-24T15:05:12;14.30;;;13.27;;
24613;SDS011;12760;46.296;25.290;2022-12-24T15:07:47;31.03;;;13.50;;
24613;SDS011;12760;46.296;25.290;2022-12-24T15:10:30;9.97;;;8.97;;
24613;SDS011;12760;46.296;25.290;2022-12-24T15:13:03;15.00;;;13.53;;
24613;SDS011;12760;46.296;25.290;2022-12-24T15:15:31;10.03;;;9.37;;
24613;SDS011;12760;46.296;25.290;2022-12-24T15:17:57;13.63;;;11.57;;
24613;SDS011;12760;46.296;25.290;2022-12-24T15:20:26;11.60;;;10.50;;
24613;SDS011;12760;46.296;25.290;2022-12-24T15:22:53;15.90;;;14.70;;
24613;SDS011;12760;46.296;25.290;2022-12-24T15:25:23;12.60;;;11.80;;
24613;SDS011;12760;46.296;25.290;2022-12-24T15:27:56;16.17;;;14.67;;
24613;SDS011;12760;46.296;25.290;2022-12-24T15:30:23;14.17;;;12.67;;
24613;SDS011;12760;46.296;25.290;2022-12-24T15:32:52;18.73;;;16.50;;
24613;SDS011;12760;46.296;25.290;2022-12-24T15:35:32;19.53;;;16.83;;
24613;SDS011;12760;46.296;25.290;2022-12-24T15:40:51;13.87;;;10.33;;
24613;SDS011;12760;46.296;25.290;2022-12-24T15:43:18;7.37;;;6.67;;
24613;SDS011;12760;46.296;25.290;2022-12-24T15:45:44;10.40;;;9.37;;
24613;SDS011;12760;46.296;25.290;2022-12-24T15:48:13;8.17;;;7.67;;
24613;SDS011;12760;46.296;25.290;2022-12-24T15:50:56;5.07;;;4.77;;
24613;SDS011;12760;46.296;25.290;2022-12-24T15:53:42;6.17;;;5.73;;
24613;SDS011;12760;46.296;25.290;2022-12-24T15:56:12;10.77;;;9.73;;
24613;SDS011;12760;46.296;25.290;2022-12-24T16:01:42;5.10;;;4.90;;
24613;SDS011;12760;46.296;25.290;2022-12-24T16:04:15;13.17;;;8.10;;
24613;SDS011;12760;46.296;25.290;2022-12-24T16:12:37;6.60;;;6.00;;
24613;SDS011;12760;46.296;25.290;2022-12-24T16:15:03;5.60;;;5.20;;
24613;SDS011;12760;46.296;25.290;2022-12-24T16:17:29;3.07;;;2.97;;
24613;SDS011;12760;46.296;25.290;2022-12-24T16:20:05;5.53;;;5.13;;
24613;SDS011;12760;46.296;25.290;2022-12-24T16:22:40;3.00;;;2.90;;
24613;SDS011;12760;46.296;25.290;2022-12-24T16:27:42;6.00;;;5.60;;
24613;SDS011;12760;46.296;25.290;2022-12-24T16:30:09;4.93;;;4.53;;
24613;SDS011;12760;46.296;25.290;2022-12-24T16:32:36;4.40;;;4.20;;
24613;SDS011;12760;46.296;25.290;2022-12-24T16:35:05;4.10;;;3.87;;
24613;SDS011;12760;46.296;25.290;2022-12-24T16:37:36;5.80;;;5.43;;
24613;SDS011;12760;46.296;25.290;2022-12-24T16:40:02;7.93;;;7.23;;
24613;SDS011;12760;46.296;25.290;2022-12-24T16:42:28;2.43;;;2.33;;
24613;SDS011;12760;46.296;25.290;2022-12-24T16:45:12;4.93;;;4.53;;
24613;SDS011;12760;46.296;25.290;2022-12-24T16:47:38;3.93;;;3.73;;
24613;SDS011;12760;46.296;25.290;2022-12-24T16:50:06;4.57;;;4.30;;
24613;SDS011;12760;46.296;25.290;2022-12-24T16:52:32;3.57;;;3.47;;
24613;SDS011;12760;46.296;25.290;2022-12-24T16:54:58;6.43;;;6.03;;
24613;SDS011;12760;46.296;25.290;2022-12-24T16:57:25;9.20;;;6.60;;
24613;SDS011;12760;46.296;25.290;2022-12-24T16:59:51;4.00;;;3.80;;
24613;SDS011;12760;46.296;25.290;2022-12-24T17:02:19;3.70;;;3.50;;
24613;SDS011;12760;46.296;25.290;2022-12-24T17:04:45;2.63;;;2.53;;
24613;SDS011;12760;46.296;25.290;2022-12-24T17:07:12;2.70;;;2.50;;
24613;SDS011;12760;46.296;25.290;2022-12-24T17:09:39;5.47;;;3.43;;
24613;SDS011;12760;46.296;25.290;2022-12-24T17:12:06;3.20;;;3.10;;
24613;SDS011;12760;46.296;25.290;2022-12-24T17:14:31;3.63;;;2.73;;
24613;SDS011;12760;46.296;25.290;2022-12-24T17:16:57;3.73;;;3.53;;
24613;SDS011;12760;46.296;25.290;2022-12-24T17:19:23;2.77;;;2.67;;
24613;SDS011;12760;46.296;25.290;2022-12-24T17:21:49;4.10;;;3.90;;